Time;durP1;ratioP1;P1;durP2;ratioP2;P2;SDS_P1;SDS_P2;PMS_P1;PMS_P2;Temp;Humidity;BMP_temperature;BMP_pressure;BME280_temperature;BME280_humidity;BME280_pressure;Samples;Min_cycle;Max_cycle;Signal;HPM_P1;HPM_P2
2021/12/22 00:01:53;;;;;;;19.25;13.75;;;7.40;73.20;;;;;;5081199;28;20047;-59
2021/12/22 00:04:24;;;;;;;18.67;12.60;;;7.40;73.30;;;;;;5084187;28;20019;-58
2021/12/22 00:06:50;;;;;;;19.58;14.05;;;7.30;73.40;;;;;;5090210;28;20025;-59
2021/12/22 00:09:15;;;;;;;23.70;12.50;;;7.40;73.50;;;;;;5076675;28;20021;-58
2021/12/22 00:11:41;;;;;;;21.90;13.38;;;7.40;73.60;;;;;;5076630;28;20477;-58
2021/12/22 00:14:06;;;;;;;16.70;12.30;;;7.40;73.50;;;;;;5076070;28;20060;-59
2021/12/22 00:16:32;;;;;;;21.73;13.75;;;7.40;73.30;;;;;;5076494;28;20528;-59
2021/12/22 00:18:58;;;;;;;20.45;12.40;;;7.40;73.40;;;;;;5075833;28;20380;-58
2021/12/22 00:21:23;;;;;;;20.38;12.88;;;7.40;73.40;;;;;;5076164;28;20035;-58
2021/12/22 00:23:49;;;;;;;21.27;14.00;;;7.40;73.20;;;;;;5076034;28;20754;-59
2021/12/22 00:26:15;;;;;;;18.98;13.23;;;7.30;73.30;;;;;;5076055;28;20024;-58
2021/12/22 00:28:42;;;;;;;20.30;14.13;;;7.30;73.50;;;;;;5076150;28;20025;-59
2021/12/22 00:31:13;;;;;;;25.27;14.95;;;7.30;73.40;;;;;;5076319;28;20076;-58
2021/12/22 00:33:51;;;;;;;20.77;13.80;;;7.20;73.60;;;;;;5075917;28;20108;-57
2021/12/22 00:36:19;;;;;;;20.27;13.65;;;7.20;73.70;;;;;;5076168;28;20036;-57
2021/12/22 00:38:46;;;;;;;20.02;13.60;;;7.20;73.80;;;;;;5076075;28;20039;-60
2021/12/22 00:41:12;;;;;;;16.27;12.13;;;7.20;73.90;;;;;;5080342;28;20028;-58
2021/12/22 00:43:38;;;;;;;21.58;13.68;;;7.10;74.10;;;;;;5088199;28;20024;-62
2021/12/22 00:46:04;;;;;;;18.05;13.23;;;7.10;74.30;;;;;;5078442;28;20497;-59
2021/12/22 00:48:31;;;;;;;19.70;13.20;;;7.10;74.20;;;;;;5075638;28;20481;-61
2021/12/22 00:50:57;;;;;;;19.77;12.50;;;7.10;74.20;;;;;;5075807;28;20028;-59
2021/12/22 00:53:23;;;;;;;21.27;13.05;;;7.10;74.20;;;;;;5075718;28;20031;-61
2021/12/22 00:55:49;;;;;;;21.75;12.90;;;7.10;74.20;;;;;;5074537;28;20367;-59
2021/12/22 00:58:15;;;;;;;17.90;13.38;;;7.00;74.30;;;;;;5075695;28;20020;-60
2021/12/22 01:00:41;;;;;;;18.35;13.68;;;7.00;74.30;;;;;;5075423;28;20036;-61
2021/12/22 01:03:06;;;;;;;28.20;14.25;;;7.00;74.40;;;;;;5075353;28;20098;-59
2021/12/22 01:05:32;;;;;;;21.02;13.38;;;7.00;74.30;;;;;;5075265;28;20029;-60
2021/12/22 01:07:59;;;;;;;23.20;14.70;;;6.90;74.60;;;;;;5075625;28;20021;-60
2021/12/22 01:10:27;;;;;;;19.80;13.65;;;6.90;74.50;;;;;;5075432;28;20024;-58
2021/12/22 01:12:55;;;;;;;23.08;14.18;;;6.90;74.70;;;;;;5090985;28;20031;-59
2021/12/22 01:15:22;;;;;;;21.88;14.88;;;6.90;74.60;;;;;;5095464;28;20028;-60
2021/12/22 01:17:56;;;;;;;20.20;13.63;;;6.90;74.70;;;;;;5095237;28;20019;-58
2021/12/22 01:20:27;;;;;;;18.63;13.70;;;6.90;74.60;;;;;;5095392;28;20055;-59
2021/12/22 01:23:01;;;;;;;19.60;13.50;;;6.90;74.50;;;;;;5092307;28;20417;-58
2021/12/22 01:25:28;;;;;;;19.83;13.27;;;6.80;74.70;;;;;;5077972;28;20426;-59
2021/12/22 01:27:54;;;;;;;20.45;14.38;;;6.80;74.50;;;;;;5075188;28;20024;-58
2021/12/22 01:30:25;;;;;;;21.73;14.02;;;6.80;74.80;;;;;;5075121;28;20031;-58
2021/12/22 01:32:54;;;;;;;19.07;14.07;;;6.80;74.80;;;;;;5074766;28;20025;-59
2021/12/22 01:35:23;;;;;;;18.73;14.60;;;6.70;74.70;;;;;;5075149;28;20033;-59
2021/12/22 01:37:52;;;;;;;17.95;13.30;;;6.70;74.90;;;;;;5089350;28;20046;-60
2021/12/22 01:40:18;;;;;;;21.17;13.45;;;6.70;75.80;;;;;;5095156;28;20019;-62
2021/12/22 01:42:44;;;;;;;22.30;13.63;;;6.70;75.10;;;;;;5095175;28;20019;-62
2021/12/22 01:45:28;;;;;;;20.13;14.48;;;6.70;75.20;;;;;;5094884;28;20028;-61
2021/12/22 01:50:43;;;;;;;19.58;13.98;;;6.70;75.20;;;;;;5076983;28;20051;-62
2021/12/22 01:53:21;;;;;;;20.55;12.70;;;6.60;75.00;;;;;;5074783;28;20029;-61
2021/12/22 01:56:05;;;;;;;18.95;14.07;;;6.60;75.00;;;;;;5074583;28;20024;-62
2021/12/22 01:58:43;;;;;;;20.77;13.45;;;6.60;75.00;;;;;;5074504;28;20021;-62
2021/12/22 02:01:10;;;;;;;17.80;13.18;;;6.60;74.90;;;;;;5074037;28;20028;-61
2021/12/22 02:03:40;;;;;;;22.13;13.32;;;6.60;74.80;;;;;;5074657;28;20025;-62
2021/12/22 02:06:08;;;;;;;20.40;13.57;;;6.50;74.90;;;;;;5075107;28;20032;-62
2021/12/22 02:08:37;;;;;;;16.67;12.98;;;6.50;74.80;;;;;;5074561;28;20021;-62
2021/12/22 02:11:04;;;;;;;21.23;13.43;;;6.50;74.30;;;;;;5074310;28;20028;-62
2021/12/22 02:13:35;;;;;;;20.13;13.88;;;6.50;75.10;;;;;;5075110;28;20031;-62
2021/12/22 02:16:07;;;;;;;25.15;14.88;;;6.50;74.60;;;;;;5072719;28;20029;-60
2021/12/22 02:18:35;;;;;;;20.00;13.70;;;6.50;74.40;;;;;;5074207;28;20028;-61
2021/12/22 02:21:01;;;;;;;21.77;15.82;;;6.40;74.20;;;;;;5089605;28;20044;-61
2021/12/22 02:23:26;;;;;;;22.50;13.93;;;6.40;74.20;;;;;;5094517;28;20055;-62
2021/12/22 02:25:57;;;;;;;21.35;13.55;;;6.40;74.60;;;;;;5094169;28;20055;-61
2021/12/22 02:28:27;;;;;;;21.65;13.68;;;6.40;74.90;;;;;;5094254;28;20024;-61
2021/12/22 02:30:54;;;;;;;17.60;12.77;;;6.30;75.20;;;;;;5094089;28;20036;-61
2021/12/22 02:33:25;;;;;;;20.05;13.38;;;6.30;75.20;;;;;;5094077;28;20059;-61
2021/12/22 02:36:06;;;;;;;19.73;13.70;;;6.30;75.60;;;;;;5080680;28;20020;-60
2021/12/22 02:38:33;;;;;;;23.55;14.60;;;6.30;75.80;;;;;;5073503;28;20025;-59
2021/12/22 02:40:59;;;;;;;17.42;13.13;;;6.30;76.00;;;;;;5073638;28;20047;-61
2021/12/22 02:43:31;;;;;;;21.52;14.35;;;6.30;75.90;;;;;;5073361;28;20070;-61
2021/12/22 02:45:57;;;;;;;20.93;13.63;;;6.30;75.90;;;;;;5073343;28;20028;-60
2021/12/22 02:48:26;;;;;;;19.95;13.45;;;6.30;75.80;;;;;;5072175;28;20647;-58
2021/12/22 02:50:54;;;;;;;26.08;13.77;;;6.30;75.80;;;;;;5073567;28;20036;-59
2021/12/22 02:53:21;;;;;;;19.20;13.88;;;6.20;75.50;;;;;;5074391;28;20031;-58
2021/12/22 02:55:50;;;;;;;22.90;14.70;;;6.20;75.30;;;;;;5073529;28;20029;-59
2021/12/22 03:03:57;;;;;;;23.30;14.85;;;6.10;75.90;;;;;;5069311;28;20554;-58
2021/12/22 03:06:33;;;;;;;22.65;14.30;;;6.10;76.10;;;;;;5093511;28;20051;-58
2021/12/22 03:09:00;;;;;;;22.30;14.70;;;6.10;76.20;;;;;;5093427;28;20023;-58
2021/12/22 03:11:25;;;;;;;21.45;15.10;;;6.10;76.20;;;;;;5091561;28;20024;-58
2021/12/22 03:13:51;;;;;;;25.23;15.05;;;6.10;76.00;;;;;;5092901;28;20036;-57
2021/12/22 03:16:18;;;;;;;24.83;16.42;;;6.10;75.90;;;;;;5092557;28;20020;-57
2021/12/22 03:18:44;;;;;;;23.02;14.75;;;6.00;75.90;;;;;;5092027;28;20020;-58
2021/12/22 03:21:20;;;;;;;22.48;15.70;;;6.00;75.80;;;;;;5093176;28;20465;-57
2021/12/22 03:23:47;;;;;;;23.40;14.90;;;6.00;75.90;;;;;;5093067;28;20102;-60
2021/12/22 03:26:16;;;;;;;24.00;14.75;;;5.90;75.70;;;;;;5093344;28;20489;-60
2021/12/22 03:28:42;;;;;;;25.48;14.43;;;5.90;75.80;;;;;;5082242;28;20466;-61
2021/12/22 03:31:07;;;;;;;26.83;16.35;;;5.90;75.60;;;;;;5073932;28;20040;-61
2021/12/22 03:33:33;;;;;;;22.33;15.20;;;5.90;75.60;;;;;;5073058;28;20031;-61
2021/12/22 03:35:58;;;;;;;22.55;15.68;;;5.90;75.90;;;;;;5073027;28;20028;-58
2021/12/22 03:38:24;;;;;;;26.92;16.25;;;5.90;76.10;;;;;;5072798;28;20024;-58
2021/12/22 03:40:50;;;;;;;21.27;15.27;;;5.80;76.00;;;;;;5072056;28;20111;-59
2021/12/22 03:43:15;;;;;;;18.40;13.30;;;5.90;76.20;;;;;;5072722;28;20067;-58
2021/12/22 03:45:41;;;;;;;23.25;15.88;;;5.80;76.40;;;;;;5073108;28;20029;-61
2021/12/22 03:48:06;;;;;;;26.00;15.40;;;5.80;76.40;;;;;;5072767;28;20406;-61
2021/12/22 03:50:32;;;;;;;23.02;15.02;;;5.80;76.60;;;;;;5072942;28;20169;-61
2021/12/22 03:52:57;;;;;;;24.50;15.23;;;5.80;76.70;;;;;;5072472;28;20051;-61
2021/12/22 03:55:23;;;;;;;20.77;15.25;;;5.80;76.90;;;;;;5072831;28;20020;-61
2021/12/22 03:57:50;;;;;;;27.58;16.48;;;5.70;76.90;;;;;;5072522;28;20100;-61
2021/12/22 04:00:16;;;;;;;24.65;16.02;;;5.70;77.00;;;;;;5072535;28;20070;-60
2021/12/22 04:02:42;;;;;;;26.45;16.20;;;5.70;77.10;;;;;;5092667;28;20028;-62
2021/12/22 04:05:08;;;;;;;25.15;16.92;;;5.70;77.40;;;;;;5092778;28;20544;-61
2021/12/22 04:07:34;;;;;;;25.15;17.50;;;5.70;77.50;;;;;;5092930;28;20569;-61
2021/12/22 04:10:08;;;;;;;25.20;17.70;;;5.60;77.50;;;;;;5091550;28;20016;-60
2021/12/22 04:12:34;;;;;;;25.67;16.15;;;5.60;77.60;;;;;;5076364;28;20064;-61
2021/12/22 04:14:59;;;;;;;25.35;17.15;;;5.60;77.60;;;;;;5072666;28;20044;-61
2021/12/22 04:17:25;;;;;;;21.67;16.60;;;5.60;77.70;;;;;;5072762;28;20024;-57
2021/12/22 04:19:50;;;;;;;25.83;17.13;;;5.60;77.80;;;;;;5072190;28;20024;-58
2021/12/22 04:22:17;;;;;;;23.17;16.40;;;5.60;77.40;;;;;;5072520;28;20045;-58
2021/12/22 04:24:42;;;;;;;23.70;15.93;;;5.60;77.30;;;;;;5071900;28;20031;-59
2021/12/22 04:27:08;;;;;;;28.27;15.88;;;5.60;77.50;;;;;;5082925;28;20032;-57
2021/12/22 04:29:33;;;;;;;21.02;15.85;;;5.60;78.20;;;;;;5094457;28;20023;-57
2021/12/22 04:31:59;;;;;;;24.98;16.02;;;5.60;77.70;;;;;;5096157;28;20028;-59
2021/12/22 04:34:24;;;;;;;23.10;15.38;;;5.60;77.90;;;;;;5096422;28;20017;-62
2021/12/22 04:36:50;;;;;;;26.67;16.40;;;5.60;77.90;;;;;;5096363;28;20119;-58
2021/12/22 04:39:16;;;;;;;21.08;16.05;;;5.60;77.90;;;;;;5095949;28;20473;-58
2021/12/22 04:41:41;;;;;;;23.67;15.95;;;5.60;77.80;;;;;;5096098;28;20119;-59
2021/12/22 04:44:07;;;;;;;29.65;16.63;;;5.50;77.90;;;;;;5085927;28;20436;-58
2021/12/22 04:46:32;;;;;;;22.38;16.25;;;5.50;77.90;;;;;;5075906;28;20043;-59
2021/12/22 04:48:58;;;;;;;23.85;16.10;;;5.50;78.10;;;;;;5075863;28;20016;-61
2021/12/22 04:51:29;;;;;;;28.00;17.13;;;5.50;78.30;;;;;;5075712;28;20025;-57
2021/12/22 04:54:16;;;;;;;25.40;16.38;;;5.50;78.40;;;;;;5075351;28;20020;-62
2021/12/22 04:56:41;;;;;;;28.15;16.52;;;5.40;78.40;;;;;;5075389;28;20047;-58
2021/12/22 04:59:07;;;;;;;25.75;16.83;;;5.40;78.60;;;;;;5077579;28;20445;-61
2021/12/22 05:01:33;;;;;;;24.55;16.20;;;5.40;78.70;;;;;;5087594;28;20044;-59
2021/12/22 05:03:58;;;;;;;24.25;15.57;;;5.40;78.90;;;;;;5095844;28;20428;-57
2021/12/22 05:06:24;;;;;;;21.90;16.40;;;5.40;78.90;;;;;;5095498;28;20060;-57
2021/12/22 05:08:51;;;;;;;24.48;16.50;;;5.40;78.90;;;;;;5095368;28;20053;-57
2021/12/22 05:11:16;;;;;;;23.58;16.45;;;5.40;78.60;;;;;;5095451;28;20447;-58
2021/12/22 05:13:42;;;;;;;23.55;16.48;;;5.30;78.20;;;;;;5095468;28;20537;-56
2021/12/22 05:16:15;;;;;;;25.00;18.02;;;5.30;78.20;;;;;;5090584;28;20048;-58
2021/12/22 05:19:15;;;;;;;19.10;14.80;;;5.30;79.20;;;;;;5075286;28;20028;-58
2021/12/22 05:21:32;;;;;;;23.55;16.48;;;5.30;78.40;;;;;;5073608;28;20139;-58
2021/12/22 05:23:58;;;;;;;21.98;15.45;;;5.30;78.60;;;;;;5074868;28;20060;-59
2021/12/22 05:26:25;;;;;;;32.78;17.58;;;5.30;78.50;;;;;;5074957;28;20028;-59
2021/12/22 05:28:51;;;;;;;24.23;16.05;;;5.30;78.40;;;;;;5075103;28;20021;-60
2021/12/22 05:31:17;;;;;;;25.13;15.23;;;5.30;79.20;;;;;;5079482;28;20488;-59
2021/12/22 05:33:42;;;;;;;22.55;15.57;;;5.50;77.00;;;;;;5095067;28;20035;-59
2021/12/22 05:36:08;;;;;;;25.30;15.50;;;5.60;75.90;;;;;;5095003;28;20107;-59
2021/12/22 05:38:34;;;;;;;24.85;15.68;;;5.60;75.90;;;;;;5094751;28;20035;-59
2021/12/22 05:40:59;;;;;;;23.83;15.32;;;5.60;75.60;;;;;;5093972;28;20040;-59
2021/12/22 05:43:25;;;;;;;23.48;15.43;;;5.60;75.40;;;;;;5094750;28;20154;-59
2021/12/22 05:45:51;;;;;;;22.48;14.60;;;5.60;75.50;;;;;;5093900;28;20032;-60
2021/12/22 05:48:16;;;;;;;18.02;13.40;;;5.60;75.70;;;;;;5074537;28;20028;-60
2021/12/22 05:50:45;;;;;;;20.80;13.95;;;5.70;75.80;;;;;;5075256;28;20032;-59
2021/12/22 05:53:11;;;;;;;20.38;13.57;;;5.70;75.80;;;;;;5083800;28;20481;-59
2021/12/22 05:55:37;;;;;;;17.17;12.73;;;5.70;76.20;;;;;;5093656;28;20012;-59
2021/12/22 05:58:02;;;;;;;20.63;14.77;;;5.70;75.20;;;;;;5093682;28;20032;-59
2021/12/22 06:00:28;;;;;;;25.15;13.95;;;5.80;75.50;;;;;;5094688;28;20442;-59
2021/12/22 06:02:54;;;;;;;20.27;13.75;;;5.70;75.30;;;;;;5092269;28;20050;-60
2021/12/22 06:05:19;;;;;;;23.35;14.77;;;5.70;75.20;;;;;;5074228;28;20028;-60
2021/12/22 06:07:45;;;;;;;23.83;15.65;;;5.80;76.20;;;;;;5073635;28;20063;-60
2021/12/22 06:10:12;;;;;;;20.98;14.73;;;5.70;76.30;;;;;;5074127;28;20126;-58
2021/12/22 06:12:37;;;;;;;21.20;14.30;;;5.60;76.30;;;;;;5073867;28;20085;-60
2021/12/22 06:15:03;;;;;;;21.60;16.38;;;5.50;76.40;;;;;;5073918;28;20029;-58
2021/12/22 06:17:29;;;;;;;19.70;14.73;;;5.40;76.90;;;;;;5074051;28;20020;-57
2021/12/22 06:19:55;;;;;;;23.67;15.25;;;5.30;77.40;;;;;;5075076;28;20379;-58
2021/12/22 06:22:21;;;;;;;23.95;14.93;;;5.30;77.50;;;;;;5073333;28;20393;-56
2021/12/22 06:24:46;;;;;;;20.45;15.63;;;5.30;77.60;;;;;;5074077;28;20029;-60
2021/12/22 06:27:12;;;;;;;21.30;16.13;;;5.30;77.70;;;;;;5073936;28;20027;-60
2021/12/22 06:29:38;;;;;;;23.17;15.45;;;5.30;77.80;;;;;;5074047;28;20042;-61
2021/12/22 06:32:04;;;;;;;20.42;15.00;;;5.20;78.00;;;;;;5073737;28;20462;-58
2021/12/22 06:34:30;;;;;;;19.55;14.85;;;5.20;77.90;;;;;;5084366;28;20054;-57
2021/12/22 06:36:56;;;;;;;19.35;14.95;;;5.20;78.00;;;;;;5093726;28;20493;-56
2021/12/22 06:39:22;;;;;;;25.08;15.77;;;5.20;78.00;;;;;;5093926;28;20458;-57
2021/12/22 06:41:48;;;;;;;18.20;14.82;;;5.20;78.10;;;;;;5092196;28;20456;-57
2021/12/22 06:44:14;;;;;;;21.50;14.35;;;5.10;77.90;;;;;;5093966;28;20095;-58
2021/12/22 06:46:41;;;;;;;21.30;13.88;;;5.10;78.10;;;;;;5094015;28;20022;-59
2021/12/22 06:49:08;;;;;;;23.58;14.35;;;5.10;78.40;;;;;;5094061;28;20031;-57
2021/12/22 06:51:33;;;;;;;18.55;13.52;;;5.10;78.50;;;;;;5091455;28;20063;-60
2021/12/22 06:53:59;;;;;;;20.08;15.18;;;5.00;78.30;;;;;;5093351;28;20051;-58
2021/12/22 06:56:24;;;;;;;22.17;16.63;;;5.00;78.30;;;;;;5093819;28;20027;-57
2021/12/22 06:58:50;;;;;;;25.08;17.20;;;5.00;78.30;;;;;;5093451;28;20026;-56
2021/12/22 07:01:19;;;;;;;28.55;17.23;;;5.00;78.40;;;;;;5093414;28;20060;-56
2021/12/22 07:03:45;;;;;;;21.63;17.95;;;5.00;78.50;;;;;;5093619;28;20031;-56
2021/12/22 07:06:11;;;;;;;25.40;17.13;;;5.00;78.40;;;;;;5093256;28;20028;-56
2021/12/22 07:08:36;;;;;;;20.00;15.77;;;5.00;78.40;;;;;;5093480;28;20031;-57
2021/12/22 07:11:02;;;;;;;32.92;23.08;;;5.00;78.40;;;;;;5091364;28;20016;-56
2021/12/22 07:13:29;;;;;;;39.72;26.38;;;5.00;78.40;;;;;;5093098;28;20032;-56
2021/12/22 07:15:54;;;;;;;47.63;31.85;;;4.90;78.50;;;;;;5093541;28;20016;-57
2021/12/22 07:18:20;;;;;;;43.45;27.98;;;4.90;78.60;;;;;;5093264;28;20039;-56
2021/12/22 07:20:46;;;;;;;27.50;19.80;;;4.90;78.30;;;;;;5093032;28;20377;-60
2021/12/22 07:23:11;;;;;;;24.92;17.05;;;4.90;78.30;;;;;;5091620;28;20028;-58
2021/12/22 07:25:37;;;;;;;21.13;15.15;;;4.90;78.40;;;;;;5093228;28;20157;-56
2021/12/22 07:28:03;;;;;;;18.98;15.60;;;4.90;78.40;;;;;;5093270;28;20024;-56
2021/12/22 07:30:28;;;;;;;28.67;17.75;;;4.90;78.90;;;;;;5093304;28;20274;-59
2021/12/22 07:32:54;;;;;;;32.83;20.67;;;4.80;78.40;;;;;;5093382;28;20065;-59
2021/12/22 07:35:34;;;;;;;49.80;30.95;;;4.90;78.30;;;;;;5092750;28;20024;-61
2021/12/22 07:38:29;;;;;;;31.50;22.33;;;4.90;78.30;;;;;;5093235;28;20035;-60
2021/12/22 07:40:56;;;;;;;22.65;15.18;;;4.80;78.30;;;;;;5071836;28;20036;-60
2021/12/22 07:43:22;;;;;;;24.85;17.08;;;4.80;78.30;;;;;;5073086;28;20029;-58
2021/12/22 07:45:48;;;;;;;17.63;13.95;;;4.80;79.60;;;;;;5076644;28;20036;-67
2021/12/22 07:48:13;;;;;;;22.45;14.00;;;5.00;79.90;;;;;;5081996;28;20039;-58
2021/12/22 07:50:39;;;;;;;18.10;13.73;;;5.10;79.30;;;;;;5087220;28;20389;-60
2021/12/22 07:53:05;;;;;;;21.95;13.73;;;5.20;79.60;;;;;;5084710;28;20461;-59
2021/12/22 07:55:30;;;;;;;21.52;13.23;;;5.30;78.80;;;;;;5076931;28;20454;-60
2021/12/22 07:57:56;;;;;;;19.27;13.02;;;5.40;78.90;;;;;;5071592;28;20025;-60
2021/12/22 08:00:21;;;;;;;16.90;12.32;;;5.50;78.40;;;;;;5071424;28;20386;-60
2021/12/22 08:02:47;;;;;;;20.13;11.43;;;5.70;77.80;;;;;;5081741;28;20036;-63
2021/12/22 08:05:13;;;;;;;15.25;12.20;;;5.70;77.70;;;;;;5099715;28;20026;-60
2021/12/22 08:07:38;;;;;;;18.65;12.07;;;5.80;77.70;;;;;;5097445;28;20522;-61
2021/12/22 08:10:06;;;;;;;18.88;12.32;;;5.90;77.80;;;;;;5088318;28;20428;-55
2021/12/22 08:12:31;;;;;;;16.65;11.98;;;6.00;77.50;;;;;;5074637;28;20028;-58
2021/12/22 08:14:57;;;;;;;14.20;10.88;;;6.10;77.00;;;;;;5079448;28;20370;-60
2021/12/22 08:17:23;;;;;;;16.38;11.27;;;6.10;77.00;;;;;;5073763;28;20036;-60
2021/12/22 08:19:49;;;;;;;15.80;12.20;;;6.00;77.10;;;;;;5080203;28;20525;-61
2021/12/22 08:22:15;;;;;;;26.50;12.80;;;5.90;75.20;;;;;;5091326;28;20033;-58
2021/12/22 08:24:40;;;;;;;21.50;13.95;;;5.70;75.80;;;;;;5082714;28;20105;-61
2021/12/22 08:27:06;;;;;;;26.85;16.30;;;5.50;76.20;;;;;;5086337;28;20058;-59
2021/12/22 08:29:32;;;;;;;17.05;13.38;;;5.40;76.80;;;;;;5085962;28;20055;-60
2021/12/22 08:31:57;;;;;;;14.25;12.38;;;5.40;77.00;;;;;;5099027;28;20107;-60
2021/12/22 08:34:36;;;;;;;15.07;11.55;;;5.30;77.20;;;;;;5098795;28;20047;-60
2021/12/22 08:39:47;;;;;;;19.10;12.05;;;5.20;76.80;;;;;;5092231;28;20038;-55
2021/12/22 08:42:13;;;;;;;20.15;12.00;;;5.10;77.10;;;;;;5087053;28;20028;-54
2021/12/22 08:44:38;;;;;;;17.45;12.82;;;5.10;77.60;;;;;;5080667;28;20428;-55
2021/12/22 08:47:04;;;;;;;17.20;11.93;;;5.00;77.50;;;;;;5088401;28;20024;-59
2021/12/22 08:49:30;;;;;;;18.33;11.07;;;5.00;77.50;;;;;;5080305;28;20033;-59
2021/12/22 08:51:55;;;;;;;16.92;11.93;;;5.00;77.80;;;;;;5086598;28;20116;-59
2021/12/22 08:54:21;;;;;;;20.58;12.48;;;4.90;77.90;;;;;;5086361;28;20022;-55
2021/12/22 08:56:47;;;;;;;15.55;11.20;;;5.00;78.00;;;;;;5088757;28;20180;-53
2021/12/22 08:59:14;;;;;;;16.55;11.55;;;5.00;77.80;;;;;;5076036;28;20021;-55
2021/12/22 09:01:40;;;;;;;15.25;10.57;;;4.80;78.50;;;;;;5090111;28;20058;-57
2021/12/22 09:04:06;;;;;;;14.02;11.60;;;4.90;78.30;;;;;;5091020;28;20028;-59
2021/12/22 09:06:32;;;;;;;16.13;10.75;;;4.90;78.40;;;;;;5090859;28;20091;-56
2021/12/22 09:08:58;;;;;;;14.30;10.65;;;4.90;78.20;;;;;;5074178;28;20023;-58
2021/12/22 09:11:25;;;;;;;15.88;10.27;;;4.90;78.30;;;;;;5077495;28;20025;-54
2021/12/22 09:13:51;;;;;;;16.08;11.18;;;5.00;78.30;;;;;;5074149;28;20079;-58
2021/12/22 09:16:17;;;;;;;17.23;11.38;;;4.90;78.60;;;;;;5072270;28;20076;-61
2021/12/22 09:18:43;;;;;;;16.98;11.60;;;4.90;78.40;;;;;;5075890;28;20025;-59
2021/12/22 09:21:11;;;;;;;16.75;11.10;;;5.00;78.40;;;;;;5082788;28;20491;-61
2021/12/22 09:23:38;;;;;;;14.45;9.80;;;5.00;78.50;;;;;;5074121;28;20052;-61
2021/12/22 09:26:05;;;;;;;18.45;10.40;;;5.00;78.30;;;;;;5083919;28;20076;-61
2021/12/22 09:28:31;;;;;;;18.70;9.45;;;5.00;78.20;;;;;;5072698;28;20157;-61
2021/12/22 09:30:56;;;;;;;13.65;9.93;;;5.00;78.40;;;;;;5079886;28;20489;-58
2021/12/22 09:33:23;;;;;;;17.38;10.23;;;5.00;78.80;;;;;;5080719;28;20354;-56
2021/12/22 09:35:50;;;;;;;16.20;11.18;;;5.00;78.70;;;;;;5082843;28;20378;-60
2021/12/22 09:38:16;;;;;;;14.50;10.57;;;5.10;78.60;;;;;;5078426;28;20017;-60
2021/12/22 09:40:42;;;;;;;17.10;11.10;;;5.10;78.60;;;;;;5078760;28;20513;-60
2021/12/22 09:43:08;;;;;;;14.93;10.57;;;5.10;78.40;;;;;;5076569;28;20112;-62
2021/12/22 09:45:37;;;;;;;16.80;10.68;;;5.20;78.40;;;;;;5087847;28;20077;-61
2021/12/22 09:50:47;;;;;;;16.88;11.50;;;5.20;79.30;;;;;;5075992;28;20047;-58
2021/12/22 09:53:15;;;;;;;18.70;12.18;;;5.20;78.40;;;;;;5083408;28;20089;-60
2021/12/22 09:55:40;;;;;;;19.83;13.13;;;5.20;79.50;;;;;;5085818;28;20062;-59
2021/12/22 09:58:06;;;;;;;24.20;14.23;;;5.30;78.70;;;;;;5079129;28;20032;-59
2021/12/22 10:00:35;;;;;;;19.70;12.80;;;5.30;78.70;;;;;;5082156;28;20051;-56
2021/12/22 10:03:02;;;;;;;16.98;11.63;;;5.30;78.70;;;;;;5072767;28;20050;-58
2021/12/22 10:05:28;;;;;;;17.33;11.95;;;5.40;78.50;;;;;;5086602;28;20032;-56
2021/12/22 10:08:10;;;;;;;15.65;10.75;;;5.40;78.90;;;;;;5077254;28;20404;-59
2021/12/22 10:10:43;;;;;;;14.45;11.65;;;5.40;79.20;;;;;;5078107;28;20081;-61
2021/12/22 10:13:14;;;;;;;16.02;10.07;;;5.50;78.20;;;;;;5071765;28;20032;-62
2021/12/22 10:15:40;;;;;;;16.13;10.85;;;5.50;78.60;;;;;;5075808;28;20017;-59
2021/12/22 10:18:14;;;;;;;18.13;9.45;;;5.50;78.20;;;;;;5084529;28;20036;-59
2021/12/22 10:20:42;;;;;;;14.63;10.52;;;5.60;77.50;;;;;;5082792;28;20030;-59
2021/12/22 10:23:30;;;;;;;15.90;10.48;;;5.60;76.70;;;;;;5095350;28;20080;-59
2021/12/22 10:26:17;;;;;;;15.23;11.38;;;5.60;76.80;;;;;;5086265;28;20029;-60
2021/12/22 10:28:55;;;;;;;17.73;10.80;;;5.60;76.90;;;;;;5082411;28;20386;-59
2021/12/22 10:31:34;;;;;;;14.40;10.95;;;5.60;77.50;;;;;;5081017;28;20016;-56
2021/12/22 10:34:07;;;;;;;16.90;10.68;;;5.60;77.40;;;;;;5075509;28;20032;-60
2021/12/22 10:36:45;;;;;;;14.55;10.85;;;5.60;77.80;;;;;;5079998;28;20016;-59
2021/12/22 10:39:22;;;;;;;16.70;12.15;;;5.60;77.70;;;;;;5079887;28;20039;-57
2021/12/22 10:41:49;;;;;;;21.20;13.55;;;5.70;78.10;;;;;;5076604;28;20054;-60
2021/12/22 10:44:15;;;;;;;22.63;14.73;;;5.70;78.10;;;;;;5079483;28;20489;-61
2021/12/22 10:46:40;;;;;;;42.15;24.38;;;5.70;77.90;;;;;;5081817;28;20063;-60
2021/12/22 10:49:17;;;;;;;47.13;24.75;;;5.70;77.80;;;;;;5077075;28;20497;-58
2021/12/22 10:51:46;;;;;;;29.73;17.55;;;5.80;78.00;;;;;;5081398;28;20034;-60
2021/12/22 10:54:16;;;;;;;23.95;13.00;;;5.80;77.90;;;;;;5082039;28;20020;-59
2021/12/22 10:56:47;;;;;;;19.98;13.85;;;5.80;78.20;;;;;;5080077;28;20561;-57
2021/12/22 10:59:14;;;;;;;17.75;12.07;;;5.90;78.00;;;;;;5079793;28;20025;-55
2021/12/22 11:01:54;;;;;;;18.33;10.80;;;5.90;77.90;;;;;;5078787;28;20039;-59
2021/12/22 11:04:44;;;;;;;17.15;10.90;;;5.90;78.10;;;;;;5079992;28;20047;-59
2021/12/22 11:07:29;;;;;;;16.65;10.48;;;6.00;78.00;;;;;;5069106;28;20036;-61
2021/12/22 11:09:55;;;;;;;17.77;11.73;;;6.00;78.20;;;;;;5078258;28;20024;-58
2021/12/22 11:12:35;;;;;;;15.95;11.68;;;6.00;78.40;;;;;;5074274;28;20499;-58
2021/12/22 11:15:01;;;;;;;13.57;10.20;;;6.00;78.30;;;;;;5074350;28;20024;-61
2021/12/22 11:17:26;;;;;;;14.27;10.23;;;6.00;78.40;;;;;;5083116;28;20027;-62
2021/12/22 11:20:01;;;;;;;16.10;10.50;;;6.10;78.00;;;;;;5076833;28;20036;-58
2021/12/22 11:23:00;;;;;;;15.45;10.75;;;6.10;78.10;;;;;;5076903;28;20039;-60
2021/12/22 11:25:27;;;;;;;17.27;10.07;;;6.10;77.50;;;;;;5063501;28;20682;-59
2021/12/22 11:27:54;;;;;;;17.23;11.02;;;6.20;77.20;;;;;;5082255;28;20027;-59
2021/12/22 11:30:22;;;;;;;16.15;11.27;;;6.20;77.10;;;;;;5077649;28;20031;-59
2021/12/22 11:32:48;;;;;;;16.40;11.35;;;6.20;77.10;;;;;;5077630;28;20524;-57
2021/12/22 11:35:15;;;;;;;15.15;10.27;;;6.30;76.60;;;;;;5079067;28;20111;-60
2021/12/22 11:37:42;;;;;;;16.80;11.00;;;6.30;76.50;;;;;;5080495;28;20051;-59
2021/12/22 11:40:10;;;;;;;19.70;12.85;;;6.30;76.60;;;;;;5077412;28;20096;-60
2021/12/22 11:42:40;;;;;;;14.88;11.40;;;6.30;76.30;;;;;;5076728;28;20040;-60
2021/12/22 11:45:20;;;;;;;13.88;10.25;;;6.40;76.00;;;;;;5076112;28;20027;-60
2021/12/22 11:47:48;;;;;;;14.98;10.55;;;6.30;76.30;;;;;;5077059;28;20047;-60
2021/12/22 11:50:18;;;;;;;19.52;10.10;;;6.40;75.80;;;;;;5085837;28;20682;-60
2021/12/22 11:53:06;;;;;;;19.83;10.27;;;6.40;75.80;;;;;;5077933;28;20033;-60
2021/12/22 11:55:50;;;;;;;19.95;10.50;;;6.50;75.50;;;;;;5080136;28;20016;-59
2021/12/22 11:58:17;;;;;;;17.52;10.23;;;6.50;74.10;;;;;;5081608;28;20502;-61
2021/12/22 12:01:12;;;;;;;15.95;10.40;;;6.50;73.90;;;;;;5084531;28;20020;-58
2021/12/22 12:03:44;;;;;;;15.80;10.40;;;6.60;73.70;;;;;;5090098;28;20030;-62
2021/12/22 12:06:17;;;;;;;15.68;10.15;;;6.60;74.10;;;;;;5073403;28;20028;-58
2021/12/22 12:08:45;;;;;;;13.82;9.65;;;6.60;73.50;;;;;;5083494;28;20444;-60
2021/12/22 12:11:16;;;;;;;22.73;13.82;;;6.60;73.30;;;;;;5086063;28;20020;-58
2021/12/22 12:22:08;;;;;;;14.15;9.63;;;6.60;73.50;;;;;;5082954;28;20101;-60
2021/12/22 12:24:35;;;;;;;19.75;10.20;;;6.60;74.20;;;;;;5091167;28;20098;-60
2021/12/22 12:27:22;;;;;;;15.20;10.02;;;6.70;74.10;;;;;;5078874;28;20044;-60
2021/12/22 12:29:59;;;;;;;15.40;9.85;;;6.70;72.60;;;;;;5077379;28;20118;-60
2021/12/22 12:32:40;;;;;;;13.13;9.93;;;6.80;72.50;;;;;;5076582;28;20020;-58
2021/12/22 12:35:18;;;;;;;14.43;10.20;;;6.80;72.30;;;;;;5078702;28;20150;-58
2021/12/22 12:38:08;;;;;;;14.30;11.43;;;6.80;72.50;;;;;;5076225;28;20040;-60
2021/12/22 12:41:16;;;;;;;16.10;11.57;;;6.80;71.90;;;;;;5075079;28;20024;-57
2021/12/22 12:43:44;;;;;;;23.08;11.45;;;6.80;72.30;;;;;;5079481;28;20036;-59
2021/12/22 12:46:24;;;;;;;17.27;10.98;;;6.90;72.00;;;;;;5075473;28;20478;-59
2021/12/22 12:48:56;;;;;;;17.30;10.93;;;6.80;72.00;;;;;;5089075;28;20044;-59
2021/12/22 12:51:25;;;;;;;14.18;10.68;;;6.80;71.50;;;;;;5085671;28;20028;-59
2021/12/22 12:53:54;;;;;;;15.05;10.85;;;6.90;71.30;;;;;;5083462;28;20369;-58
2021/12/22 12:56:21;;;;;;;19.98;10.20;;;6.90;72.00;;;;;;5088531;28;20020;-58
2021/12/22 12:58:54;;;;;;;11.95;9.25;;;6.90;71.30;;;;;;5086334;28;20094;-60
2021/12/22 13:01:52;;;;;;;16.17;10.43;;;6.90;71.60;;;;;;5084052;28;20036;-60
2021/12/22 13:04:25;;;;;;;20.52;11.23;;;7.00;71.50;;;;;;5086778;28;20537;-61
2021/12/22 13:06:51;;;;;;;13.65;10.13;;;7.00;71.60;;;;;;5086607;28;20119;-59
2021/12/22 13:09:26;;;;;;;17.77;12.20;;;7.00;71.70;;;;;;5086801;28;20498;-59